Vjaz'Ma, Russia
Current Conditions -  °F | °C
As of 10:30 AM on Monday 22 Dec 2014 (Local Time) from UUBW Reporting Station
Light Snow Light Snow  
Wind Chill: 21°   Ceiling: 2600
Heat Index: 30°   Visibility: 6mi
Dew Point: 25°   Wind: 11mph
Humidity: 80%   Direction: 250°WSW
Pressure: 29.5"   Gusts: NA
Location:  55.17°N, 34.4°E
Report Text: UUBW 220730Z 25005MPS 9999 -SN BKN026 M01/M04 Q0999 NOSIG RMKSC0.42
Loading
Personal Weather Stations






























Interactive Weather Map New forecast layout! Learn more

10-Day Weather Forecast

Advertisements
Track Severe Weather on mobile